createdAt,value
2023-04-29T00:01:02.061Z,23.69
2023-04-29T00:03:07.287Z,23.7
2023-04-29T00:05:13.159Z,23.7
2023-04-29T00:07:19.253Z,23.68
2023-04-29T00:09:24.267Z,23.67
2023-04-29T00:11:29.287Z,23.65
2023-04-29T00:13:34.262Z,23.66
2023-04-29T00:15:39.296Z,23.65
2023-04-29T00:17:44.287Z,23.67
2023-04-29T00:19:49.675Z,23.68
2023-04-29T00:21:55.768Z,23.68
2023-04-29T00:24:00.733Z,23.68
2023-04-29T00:26:05.809Z,23.68
2023-04-29T00:28:10.890Z,23.67
2023-04-29T00:30:15.931Z,23.67
2023-04-29T00:32:20.925Z,23.68
2023-04-29T00:34:26.050Z,23.68
2023-04-29T00:36:31.214Z,23.68
2023-04-29T00:38:36.214Z,23.66
2023-04-29T00:40:41.196Z,23.65
2023-04-29T00:42:46.430Z,23.65
2023-04-29T00:44:51.675Z,23.65
2023-04-29T00:46:56.698Z,23.66
2023-04-29T00:49:01.719Z,23.67
2023-04-29T00:51:06.799Z,23.67
2023-04-29T00:53:11.853Z,23.69
2023-04-29T00:55:16.821Z,23.71
2023-04-29T00:57:21.831Z,23.69
2023-04-29T00:59:26.806Z,23.65
2023-04-29T01:01:31.817Z,23.65
2023-04-29T01:03:37.230Z,23.63
2023-04-29T01:05:43.051Z,23.61
2023-04-29T01:07:48.016Z,23.61
2023-04-29T01:09:53.164Z,23.59
2023-04-29T01:11:58.636Z,23.58
2023-04-29T01:14:03.644Z,23.59
2023-04-29T01:16:08.926Z,23.58
2023-04-29T01:18:14.238Z,23.6
2023-04-29T01:20:19.236Z,23.59
2023-04-29T01:22:24.288Z,23.58
2023-04-29T01:24:29.299Z,23.57
2023-04-29T01:26:34.336Z,23.58
2023-04-29T01:28:39.327Z,23.56
2023-04-29T01:30:44.288Z,23.57
2023-04-29T01:32:49.298Z,23.56
2023-04-29T01:34:55.042Z,23.54
2023-04-29T01:37:00.019Z,23.53
2023-04-29T01:39:05.163Z,23.51
2023-04-29T02:33:08.844Z,23.55
2023-04-29T02:35:14.063Z,23.67
2023-04-29T02:37:19.089Z,23.68
2023-04-29T02:39:24.076Z,23.66
2023-04-29T02:41:29.053Z,23.62
2023-04-29T02:43:33.980Z,23.59
2023-04-29T02:45:39.002Z,23.55
2023-04-29T02:47:44.091Z,23.52
2023-04-29T02:49:49.272Z,23.52
2023-04-29T02:51:55.012Z,23.49
2023-04-29T02:53:59.970Z,23.47
2023-04-29T02:56:04.985Z,23.46
2023-04-29T02:58:09.948Z,23.42
2023-04-29T03:00:15.029Z,23.4
2023-04-29T03:02:20.063Z,23.38
2023-04-29T03:04:25.452Z,23.39
2023-04-29T03:06:30.855Z,23.37
2023-04-29T03:08:35.835Z,23.36
2023-04-29T03:10:41.540Z,23.35
2023-04-29T03:12:46.796Z,23.33
2023-04-29T03:14:51.732Z,23.31
2023-04-29T03:16:56.788Z,23.29
2023-04-29T03:19:02.011Z,23.3
2023-04-29T03:21:07.017Z,23.3
2023-04-29T03:23:11.993Z,23.3
2023-04-29T03:25:16.995Z,23.28
2023-04-29T03:27:21.992Z,23.27
2023-04-29T03:29:26.969Z,23.26
2023-04-29T03:31:31.987Z,23.27
2023-04-29T03:33:37.140Z,23.24
2023-04-29T03:35:42.092Z,23.25
2023-04-29T03:37:47.155Z,23.23
2023-04-29T03:39:52.224Z,23.23
2023-04-29T03:41:58.236Z,23.22
2023-04-29T03:44:03.250Z,23.22
2023-04-29T03:46:08.387Z,23.22
2023-04-29T03:48:13.435Z,23.23
2023-04-29T03:50:18.436Z,23.2
2023-04-29T03:52:23.441Z,23.19
2023-04-29T03:54:28.370Z,23.18
2023-04-29T03:56:33.410Z,23.18
2023-04-29T03:58:38.559Z,23.18
2023-04-29T04:00:43.534Z,23.19
2023-04-29T04:02:48.695Z,23.19
2023-04-29T04:04:54.319Z,23.17
2023-04-29T04:06:59.758Z,23.16
2023-04-29T04:09:04.780Z,23.17
2023-04-29T04:11:09.857Z,23.19
2023-04-29T04:13:14.856Z,23.17
2023-04-29T04:15:19.823Z,23.17
2023-04-29T04:17:24.848Z,23.18
2023-04-29T04:19:29.844Z,23.16
2023-04-29T04:21:34.812Z,23.15
2023-04-29T04:23:39.829Z,23.13
2023-04-29T04:25:44.866Z,23.13
2023-04-29T04:27:49.888Z,23.09
2023-04-29T04:29:54.862Z,23.08
2023-04-29T04:31:59.847Z,23.09
2023-04-29T04:34:05.010Z,23.08
2023-04-29T04:36:10.013Z,23.07
2023-04-29T04:38:15.082Z,23.07
2023-04-29T04:40:20.045Z,23.07
2023-04-29T04:42:25.019Z,23.05
2023-04-29T04:44:30.112Z,23.06
2023-04-29T04:46:35.123Z,23.06
2023-04-29T04:48:40.211Z,23.06
2023-04-29T04:50:45.198Z,23.06
2023-04-29T04:52:50.307Z,23.06
2023-04-29T04:54:55.303Z,23.06
2023-04-29T04:57:00.296Z,23.06
2023-04-29T04:59:05.407Z,23.07
2023-04-29T05:01:10.536Z,23.07
2023-04-29T05:03:15.766Z,23.06
2023-04-29T05:05:21.193Z,23.06
2023-04-29T05:07:26.241Z,23.07
2023-04-29T05:09:31.246Z,23.07
2023-04-29T05:11:36.363Z,23.06
2023-04-29T05:13:41.359Z,23.07
2023-04-29T05:15:46.364Z,23.07
2023-04-29T05:17:51.380Z,23.06
2023-04-29T05:19:56.552Z,23.03
2023-04-29T05:22:01.568Z,23.03
2023-04-29T05:24:06.585Z,23.04
2023-04-29T05:26:11.682Z,23.03
2023-04-29T05:28:16.637Z,23.03
2023-04-29T05:30:21.686Z,23.02
2023-04-29T05:32:26.715Z,23.03
2023-04-29T05:34:31.870Z,23.02
2023-04-29T05:36:36.847Z,23.04
2023-04-29T05:38:41.845Z,23.04
2023-04-29T05:40:46.848Z,23.05
2023-04-29T05:42:51.840Z,23.03
2023-04-29T05:44:56.860Z,23.04
2023-04-29T05:47:01.835Z,23.03
2023-04-29T05:49:06.823Z,23.04
2023-04-29T05:51:11.864Z,23.04
2023-04-29T05:53:16.840Z,23.06
2023-04-29T05:55:21.834Z,23.06
2023-04-29T05:57:26.848Z,23.05
2023-04-29T05:59:31.842Z,23.05
2023-04-29T06:01:36.837Z,23.07
2023-04-29T06:03:41.982Z,23.11
2023-04-29T06:05:47.756Z,23.21
2023-04-29T06:07:53.773Z,23.31
2023-04-29T06:09:58.762Z,23.38
2023-04-29T06:12:03.892Z,23.44
2023-04-29T06:14:08.885Z,23.5
2023-04-29T06:16:13.889Z,23.58
2023-04-29T06:18:19.040Z,23.63
2023-04-29T06:20:24.122Z,23.69
2023-04-29T06:22:29.103Z,23.73
2023-04-29T06:24:34.148Z,23.77
2023-04-29T06:26:39.133Z,23.8
2023-04-29T06:28:44.112Z,23.83
2023-04-29T06:30:49.130Z,23.84
2023-04-29T06:32:54.266Z,23.84
2023-04-29T06:34:59.414Z,23.85
2023-04-29T06:37:04.441Z,23.83
2023-04-29T06:39:09.441Z,23.83
2023-04-29T06:41:14.510Z,23.86
2023-04-29T06:43:19.490Z,23.88
2023-04-29T06:45:24.467Z,23.91
2023-04-29T06:47:29.518Z,23.9
2023-04-29T06:49:34.740Z,23.93
2023-04-29T06:51:39.806Z,23.96
2023-04-29T06:53:44.822Z,23.96
2023-04-29T06:55:49.763Z,23.97
2023-04-29T06:57:54.776Z,23.98
2023-04-29T06:59:59.856Z,24
2023-04-29T07:02:04.855Z,24
2023-04-29T07:04:09.927Z,24.01
2023-04-29T07:06:15.054Z,24.01
2023-04-29T07:08:20.073Z,24.01
2023-04-29T07:10:25.141Z,24.02
2023-04-29T07:12:30.142Z,24.02
2023-04-29T07:14:35.147Z,24.05
2023-04-29T07:16:40.410Z,24.06
2023-04-29T07:18:45.543Z,24.09
2023-04-29T07:20:50.452Z,24.13
2023-04-29T07:22:55.564Z,24.17
2023-04-29T07:25:00.681Z,24.18
2023-04-29T07:27:05.698Z,24.18
2023-04-29T07:29:10.756Z,24.16
2023-04-29T07:31:15.770Z,24.17
2023-04-29T07:33:20.952Z,24.17
2023-04-29T07:35:25.953Z,24.16
2023-04-29T07:37:30.940Z,24.17
2023-04-29T07:39:35.943Z,24.17
2023-04-29T07:41:40.962Z,24.16
2023-04-29T07:43:45.984Z,24.16
2023-04-29T07:45:51.017Z,24.16
2023-04-29T07:47:56.261Z,24.17
2023-04-29T07:50:01.389Z,24.17
2023-04-29T07:52:06.439Z,24.17
2023-04-29T07:54:11.413Z,24.16
2023-04-29T07:56:16.438Z,24.15
2023-04-29T07:58:21.558Z,24.16
2023-04-29T08:00:26.633Z,24.13
2023-04-29T08:02:31.847Z,24.12
2023-04-29T08:04:37.390Z,24.14
2023-04-29T08:06:43.173Z,24.13
2023-04-29T08:08:48.254Z,24.14
2023-04-29T08:10:53.253Z,24.14
2023-04-29T08:12:58.325Z,24.15
2023-04-29T08:15:04.691Z,24.16
2023-04-29T08:17:12.729Z,24.16
2023-04-29T08:19:17.750Z,24.15
2023-04-29T08:21:22.737Z,24.17
2023-04-29T08:23:27.760Z,24.17
2023-04-29T08:25:32.761Z,24.17
2023-04-29T08:27:37.754Z,24.18
2023-04-29T08:29:42.929Z,24.18
2023-04-29T08:31:47.994Z,24.19
2023-04-29T08:33:53.156Z,24.19
2023-04-29T08:35:58.167Z,24.2
2023-04-29T08:38:03.177Z,24.22
2023-04-29T08:40:08.171Z,24.22
2023-04-29T08:42:13.208Z,24.22
2023-04-29T08:44:18.208Z,24.23
2023-04-29T08:46:23.304Z,24.23
2023-04-29T08:48:28.775Z,24.25
2023-04-29T08:50:34.146Z,24.26
2023-04-29T08:52:39.238Z,24.27
2023-04-29T08:54:44.242Z,24.29
2023-04-29T08:56:49.235Z,24.29
2023-04-29T08:58:54.319Z,24.31
2023-04-29T09:00:59.338Z,24.33
2023-04-29T09:03:04.515Z,24.34
2023-04-29T09:05:09.870Z,24.36
2023-04-29T09:07:14.965Z,24.37
2023-04-29T09:09:20.894Z,24.38
2023-04-29T09:11:26.007Z,24.4
2023-04-29T09:13:31.019Z,24.39
2023-04-29T09:15:36.089Z,24.38
2023-04-29T09:17:41.206Z,24.4
2023-04-29T09:19:46.393Z,24.39
2023-04-29T09:21:51.483Z,24.4
2023-04-29T09:23:56.501Z,24.4
2023-04-29T09:26:01.558Z,24.4
2023-04-29T09:28:06.667Z,24.42
2023-04-29T09:30:11.928Z,24.44
2023-04-29T09:32:17.025Z,24.46
2023-04-29T09:34:22.194Z,24.48
2023-04-29T09:36:27.235Z,24.48
2023-04-29T09:38:32.215Z,24.46
2023-04-29T09:40:46.906Z,24.5
2023-04-29T09:43:05.227Z,24.5
2023-04-29T09:45:10.211Z,24.51
2023-04-29T09:47:15.258Z,24.52
2023-04-29T09:49:20.264Z,24.49
2023-04-29T09:51:25.322Z,24.51
2023-04-29T09:53:30.422Z,24.51
2023-04-29T09:55:35.805Z,24.52
2023-04-29T09:57:42.714Z,24.53
2023-04-29T09:59:49.300Z,24.54
2023-04-29T10:01:54.421Z,24.52
2023-04-29T10:03:59.887Z,24.51
2023-04-29T10:06:05.071Z,24.52
2023-04-29T10:08:10.083Z,24.54
2023-04-29T10:10:15.113Z,24.56
2023-04-29T10:12:20.325Z,24.56
2023-04-29T10:14:25.524Z,24.57
2023-04-29T10:16:30.685Z,24.54
2023-04-29T10:18:35.995Z,24.53
2023-04-29T10:20:41.518Z,24.52
2023-04-29T10:22:46.545Z,24.53
2023-04-29T10:24:51.794Z,24.54
2023-04-29T10:26:57.287Z,24.56
2023-04-29T10:29:02.353Z,24.57
2023-04-29T10:31:07.416Z,24.61
2023-04-29T10:33:12.730Z,24.66
2023-04-29T10:35:17.880Z,24.68
2023-04-29T10:37:23.025Z,24.72
2023-04-29T10:39:28.026Z,24.76
2023-04-29T10:41:33.084Z,24.76
2023-04-29T10:43:38.030Z,24.8
2023-04-29T10:45:43.036Z,24.81
2023-04-29T10:47:48.064Z,24.83
2023-04-29T10:49:53.307Z,24.83
2023-04-29T10:51:58.340Z,24.82
2023-04-29T10:54:03.367Z,24.85
2023-04-29T10:56:08.406Z,24.83
2023-04-29T10:58:13.530Z,24.83
2023-04-29T11:00:18.534Z,24.83
2023-04-29T11:02:23.664Z,24.84
2023-04-29T11:04:28.889Z,24.82
2023-04-29T11:06:34.063Z,24.82
2023-04-29T11:08:39.118Z,24.82
2023-04-29T11:10:44.205Z,24.81
2023-04-29T11:12:49.238Z,24.81
2023-04-29T11:14:54.418Z,24.8
2023-04-29T11:16:59.938Z,24.77
2023-04-29T11:19:05.007Z,24.78
2023-04-29T11:21:10.157Z,24.77
2023-04-29T11:23:15.264Z,24.77
2023-04-29T11:25:20.373Z,24.76
2023-04-29T11:27:25.490Z,24.77
2023-04-29T11:29:30.509Z,24.77
2023-04-29T11:31:35.576Z,24.79
2023-04-29T11:33:40.988Z,24.8
2023-04-29T11:35:46.010Z,24.81
2023-04-29T11:37:51.114Z,24.82
2023-04-29T11:39:56.057Z,24.79
2023-04-29T11:42:01.034Z,24.79
2023-04-29T11:44:06.088Z,24.75
2023-04-29T11:46:11.127Z,24.73
2023-04-29T11:48:16.425Z,24.72
2023-04-29T11:50:21.440Z,24.7
2023-04-29T11:52:26.476Z,24.69
2023-04-29T11:54:31.463Z,24.67
2023-04-29T11:56:36.394Z,24.68
2023-04-29T11:58:41.381Z,24.69
2023-04-29T12:00:46.344Z,24.71
2023-04-29T12:02:51.492Z,24.73
2023-04-29T12:04:57.471Z,24.73
2023-04-29T12:07:04.650Z,24.74
2023-04-29T12:09:09.565Z,24.76
2023-04-29T12:11:14.522Z,24.76
2023-04-29T12:13:19.582Z,24.76
2023-04-29T12:15:24.655Z,24.77
2023-04-29T12:17:29.751Z,24.73
2023-04-29T12:19:34.948Z,24.72
2023-04-29T12:21:39.944Z,24.68
2023-04-29T12:23:44.971Z,24.66
2023-04-29T12:25:49.964Z,24.65
2023-04-29T12:27:54.926Z,24.6
2023-04-29T12:29:59.900Z,24.58
2023-04-29T12:32:04.881Z,24.57
2023-04-29T12:34:10.380Z,24.56
2023-04-29T12:36:15.496Z,24.57
2023-04-29T12:38:20.526Z,24.57
2023-04-29T12:40:25.503Z,24.57
2023-04-29T12:42:33.216Z,24.58
2023-04-29T12:44:38.406Z,24.59
2023-04-29T12:46:43.739Z,24.59
2023-04-29T12:48:48.865Z,24.58
2023-04-29T12:50:53.861Z,24.58
2023-04-29T12:52:58.845Z,24.6
2023-04-29T12:55:03.846Z,24.61
2023-04-29T12:57:09.684Z,24.64
2023-04-29T12:59:15.253Z,24.68
2023-04-29T13:01:20.398Z,24.71
2023-04-29T13:03:25.797Z,24.72
2023-04-29T13:05:31.832Z,24.75
2023-04-29T13:07:37.171Z,24.74
2023-04-29T13:09:42.452Z,24.75
2023-04-29T13:11:47.499Z,24.75
2023-04-29T13:13:52.506Z,24.74
2023-04-29T13:15:57.537Z,24.74
2023-04-29T13:18:05.568Z,24.74
2023-04-29T13:20:11.133Z,24.73
2023-04-29T13:22:16.350Z,24.74
2023-04-29T13:24:21.364Z,24.74
2023-04-29T13:26:26.573Z,24.71
2023-04-29T13:28:32.050Z,24.72
2023-04-29T13:30:37.070Z,24.73
2023-04-29T13:32:46.222Z,24.71
2023-04-29T13:35:05.791Z,24.74
2023-04-29T13:37:10.810Z,24.75
2023-04-29T13:39:15.842Z,24.73
2023-04-29T13:41:22.866Z,24.71
2023-04-29T13:43:37.155Z,24.71
2023-04-29T13:45:48.188Z,24.69
2023-04-29T13:48:07.132Z,24.7
2023-04-29T13:51:53.059Z,24.69
2023-04-29T13:59:39.837Z,24.67
2023-04-29T14:02:22.965Z,24.67
2023-04-29T14:04:31.209Z,24.66
2023-04-29T14:06:36.727Z,24.65
2023-04-29T14:08:41.745Z,24.65
2023-04-29T14:10:46.735Z,24.66
2023-04-29T14:12:51.819Z,24.64
2023-04-29T14:14:57.742Z,24.6
2023-04-29T14:17:04.780Z,24.64
2023-04-29T14:19:09.908Z,24.6
2023-04-29T14:21:14.898Z,24.61
2023-04-29T14:23:20.003Z,24.58
2023-04-29T14:25:26.669Z,24.6
2023-04-29T14:27:36.440Z,24.57
2023-04-29T14:29:41.453Z,24.58
2023-04-29T14:31:46.514Z,24.54
2023-04-29T14:33:51.988Z,24.53
2023-04-29T14:35:56.979Z,24.52
2023-04-29T14:38:01.996Z,24.41
2023-04-29T14:40:07.021Z,24.29
2023-04-29T14:42:11.974Z,24.23
2023-04-29T14:44:16.965Z,24.19
2023-04-29T14:46:21.971Z,24.15
2023-04-29T14:48:27.164Z,24.13
2023-04-29T14:50:32.167Z,24.17
2023-04-29T14:52:37.500Z,24.21
2023-04-29T14:54:42.486Z,24.27
2023-04-29T14:56:47.562Z,24.33
2023-04-29T14:58:52.639Z,24.38
2023-04-29T15:00:57.732Z,24.43
2023-04-29T15:03:03.921Z,24.45
2023-04-29T15:05:09.612Z,24.47
2023-04-29T15:07:14.735Z,24.48
2023-04-29T15:09:19.750Z,24.48
2023-04-29T15:11:24.696Z,24.5
2023-04-29T15:13:30.190Z,24.52
2023-04-29T15:15:36.596Z,24.53
2023-04-29T15:17:41.577Z,24.53
2023-04-29T15:19:46.700Z,24.51
2023-04-29T15:21:51.771Z,24.5
2023-04-29T15:23:56.796Z,24.47
2023-04-29T15:26:01.934Z,24.46
2023-04-29T15:28:06.920Z,24.44
2023-04-29T15:30:11.913Z,24.44
2023-04-29T15:32:16.930Z,24.44
2023-04-29T15:34:22.055Z,24.44
2023-04-29T15:36:26.943Z,24.45
2023-04-29T15:38:31.861Z,24.47
2023-04-29T15:40:36.807Z,24.48
2023-04-29T15:42:41.696Z,24.52
2023-04-29T15:44:46.641Z,24.53
2023-04-29T15:46:51.833Z,24.52
2023-04-29T15:48:56.832Z,24.52
2023-04-29T15:51:01.854Z,24.5
2023-04-29T15:53:06.871Z,24.49
2023-04-29T15:55:11.857Z,24.45
2023-04-29T15:57:17.657Z,24.43
2023-04-29T15:59:22.678Z,24.45
2023-04-29T16:01:27.661Z,24.44
2023-04-29T16:03:33.042Z,24.45
2023-04-29T16:05:38.238Z,24.47
2023-04-29T16:07:43.208Z,24.53
2023-04-29T16:09:48.235Z,24.53
2023-04-29T16:11:53.262Z,24.54
2023-04-29T16:13:58.289Z,24.54
2023-04-29T16:16:03.288Z,24.55
2023-04-29T16:18:08.302Z,24.54
2023-04-29T16:20:13.368Z,24.56
2023-04-29T16:22:18.354Z,24.55
2023-04-29T16:24:23.367Z,24.55
2023-04-29T16:26:28.432Z,24.57
2023-04-29T16:28:33.451Z,24.57
2023-04-29T16:30:38.424Z,24.57
2023-04-29T16:32:43.394Z,24.58
2023-04-29T16:34:48.523Z,24.57
2023-04-29T16:36:53.760Z,24.57
2023-04-29T16:38:58.804Z,24.58
2023-04-29T16:41:03.834Z,24.61
2023-04-29T16:43:08.807Z,24.61
2023-04-29T16:45:13.817Z,24.59
2023-04-29T16:47:18.828Z,24.57
2023-04-29T16:49:23.960Z,24.54
2023-04-29T16:51:29.093Z,24.55
2023-04-29T16:53:34.134Z,24.64
2023-04-29T16:55:39.299Z,24.71
2023-04-29T16:57:44.349Z,24.82
2023-04-29T16:59:49.352Z,24.9
2023-04-29T17:01:54.830Z,24.95
2023-04-29T17:04:00.007Z,25.01
2023-04-29T17:06:05.153Z,25.07
2023-04-29T17:08:10.236Z,25.1
2023-04-29T17:10:15.345Z,25.15
2023-04-29T17:12:20.389Z,25.12
2023-04-29T17:14:25.394Z,25.09
2023-04-29T17:16:30.455Z,25.07
2023-04-29T17:18:35.707Z,25.05
2023-04-29T17:20:40.666Z,25.08
2023-04-29T17:22:45.658Z,25.09
2023-04-29T17:24:51.075Z,25.12
2023-04-29T17:26:56.105Z,25.15
2023-04-29T17:29:01.093Z,25.15
2023-04-29T17:31:06.226Z,25.08
2023-04-29T17:33:11.285Z,24.88
2023-04-29T17:35:16.462Z,24.8
2023-04-29T17:37:21.561Z,24.81
2023-04-29T17:39:26.622Z,24.83
2023-04-29T17:41:31.644Z,24.9
2023-04-29T17:43:36.696Z,24.96
2023-04-29T17:45:41.878Z,24.98
2023-04-29T17:47:47.172Z,24.98
2023-04-29T17:49:52.827Z,25.01
2023-04-29T17:51:59.581Z,25.02
2023-04-29T17:54:04.698Z,25.03
2023-04-29T17:56:09.879Z,25.05
2023-04-29T17:58:14.956Z,25.06
2023-04-29T18:00:19.998Z,25.06
2023-04-29T18:02:25.179Z,25.06
2023-04-29T18:04:30.422Z,25.05
2023-04-29T18:06:35.625Z,25.04
2023-04-29T18:08:40.872Z,25.04
2023-04-29T18:10:45.985Z,25.04
2023-04-29T18:12:51.071Z,25.07
2023-04-29T18:14:56.183Z,25.06
2023-04-29T18:17:01.403Z,25.03
2023-04-29T18:19:06.762Z,25.01
2023-04-29T18:21:12.285Z,24.99
2023-04-29T18:23:17.360Z,24.99
2023-04-29T18:25:22.404Z,24.98
2023-04-29T18:27:27.442Z,24.97
2023-04-29T18:29:32.507Z,24.96
2023-04-29T18:31:37.727Z,24.95
2023-04-29T18:33:43.101Z,24.93
2023-04-29T18:35:48.152Z,24.99
2023-04-29T18:37:53.261Z,25.01
2023-04-29T18:39:58.405Z,25.03
2023-04-29T18:42:03.478Z,25.04
2023-04-29T18:44:08.574Z,25.06
2023-04-29T18:46:13.651Z,25.07
2023-04-29T18:48:18.860Z,25.08
2023-04-29T18:50:23.951Z,25.07
2023-04-29T18:52:29.009Z,25.06
2023-04-29T18:54:34.054Z,25.05
2023-04-29T18:56:40.254Z,25.04
2023-04-29T18:58:45.393Z,25.02
2023-04-29T19:00:50.608Z,25.01
2023-04-29T19:02:55.978Z,25.01
2023-04-29T19:05:01.241Z,24.98
2023-04-29T19:07:06.774Z,24.95
2023-04-29T19:09:11.730Z,24.92
2023-04-29T19:11:16.703Z,24.92
2023-04-29T19:13:21.688Z,24.93
2023-04-29T19:15:26.809Z,24.94
2023-04-29T19:17:32.528Z,24.92
2023-04-29T19:19:37.730Z,24.91
2023-04-29T19:21:42.928Z,24.94
2023-04-29T19:23:48.113Z,24.96
2023-04-29T19:25:53.214Z,25
2023-04-29T19:27:58.389Z,25.03
2023-04-29T19:30:04.010Z,25.04
2023-04-29T19:32:09.083Z,25.01
2023-04-29T19:34:14.237Z,24.99
2023-04-29T19:36:19.311Z,24.99
2023-04-29T19:38:24.442Z,24.98
2023-04-29T19:40:29.636Z,25.03
2023-04-29T19:42:34.665Z,25.05
2023-04-29T19:44:39.751Z,25.05
2023-04-29T19:46:44.848Z,25.06
2023-04-29T19:48:50.800Z,25.04
2023-04-29T19:50:55.963Z,25.02
2023-04-29T19:53:01.030Z,24.98
2023-04-29T19:55:06.185Z,24.96
2023-04-29T19:57:11.525Z,24.94
2023-04-29T19:59:16.709Z,24.91
2023-04-29T20:01:21.833Z,24.88
2023-04-29T20:03:27.191Z,24.86
2023-04-29T20:05:32.421Z,24.84
2023-04-29T20:07:37.556Z,24.81
2023-04-29T20:09:42.626Z,24.8
2023-04-29T20:11:47.833Z,24.79
2023-04-29T20:13:52.887Z,24.79
2023-04-29T20:15:57.958Z,24.76
2023-04-29T20:18:03.294Z,24.78
2023-04-29T20:20:08.653Z,24.83
2023-04-29T20:22:13.837Z,24.83
2023-04-29T20:24:18.886Z,24.84
2023-04-29T20:26:23.936Z,24.84
2023-04-29T20:28:29.108Z,24.84
2023-04-29T20:30:34.197Z,24.83
2023-04-29T20:32:39.455Z,24.83
2023-04-29T20:34:44.824Z,24.82
2023-04-29T20:36:49.863Z,24.8
2023-04-29T20:38:54.949Z,24.81
2023-04-29T20:40:59.988Z,24.81
2023-04-29T20:43:05.064Z,24.8
2023-04-29T20:45:10.228Z,24.8
2023-04-29T20:47:15.440Z,24.78
2023-04-29T20:49:20.494Z,24.78
2023-04-29T20:51:25.591Z,24.77
2023-04-29T20:53:30.691Z,24.75
2023-04-29T20:55:35.847Z,24.75
2023-04-29T20:57:40.985Z,24.75
2023-04-29T20:59:46.048Z,24.73
2023-04-29T21:01:51.392Z,24.73
2023-04-29T21:03:57.117Z,24.73
2023-04-29T21:06:02.355Z,24.71
2023-04-29T21:08:07.630Z,24.72
2023-04-29T21:10:12.713Z,24.72
2023-04-29T21:12:17.898Z,24.7
2023-04-29T21:14:23.303Z,24.69
2023-04-29T21:16:28.556Z,24.73
2023-04-29T21:18:33.633Z,24.76
2023-04-29T21:20:38.731Z,24.8
2023-04-29T21:22:43.791Z,24.8
2023-04-29T21:24:49.029Z,24.86
2023-04-29T21:26:54.091Z,24.91
2023-04-29T21:28:59.190Z,24.93
2023-04-29T21:31:04.286Z,24.95
2023-04-29T21:33:09.570Z,24.99
2023-04-29T21:35:14.782Z,25
2023-04-29T21:37:19.824Z,25.01
2023-04-29T21:39:24.941Z,25.03
2023-04-29T21:41:30.022Z,25.03
2023-04-29T21:43:35.204Z,25.02
2023-04-29T21:45:40.236Z,25.03
2023-04-29T21:47:45.406Z,25.02
2023-04-29T21:49:50.816Z,25.03
2023-04-29T21:51:56.859Z,25.02
2023-04-29T21:54:01.875Z,25.02
2023-04-29T21:56:06.990Z,25.01
2023-04-29T21:58:12.132Z,25.02
2023-04-29T22:00:17.199Z,25.02
2023-04-29T22:02:22.351Z,25.01
2023-04-29T22:04:27.606Z,25.02
2023-04-29T22:06:32.715Z,25.01
2023-04-29T22:08:37.881Z,25.02
2023-04-29T22:10:42.983Z,25.02
2023-04-29T22:12:48.077Z,25
2023-04-29T22:14:53.137Z,24.98
2023-04-29T22:16:58.177Z,25
2023-04-29T22:19:03.334Z,24.98
2023-04-29T22:21:08.550Z,24.99
2023-04-29T22:23:13.581Z,24.98
2023-04-29T22:25:18.759Z,24.99
2023-04-29T22:27:23.882Z,24.99
2023-04-29T22:29:28.923Z,24.99
2023-04-29T22:31:33.989Z,24.99
2023-04-29T22:33:39.084Z,24.99
2023-04-29T22:35:44.395Z,24.98
2023-04-29T22:37:49.505Z,24.97
2023-04-29T22:39:54.827Z,24.97
2023-04-29T22:42:00.803Z,24.98
2023-04-29T22:44:05.871Z,24.97
2023-04-29T22:46:11.086Z,24.96
2023-04-29T22:48:16.369Z,24.96
2023-04-29T22:50:21.567Z,24.98
2023-04-29T22:52:26.592Z,24.97
2023-04-29T22:54:31.877Z,24.96
2023-04-29T22:56:36.937Z,24.96
2023-04-29T22:58:41.981Z,24.96
2023-04-29T23:00:47.038Z,24.94
2023-04-29T23:02:52.067Z,24.94
2023-04-29T23:04:57.605Z,24.95
2023-04-29T23:07:03.116Z,24.95
2023-04-29T23:09:08.148Z,24.97
2023-04-29T23:11:13.441Z,24.96
2023-04-29T23:13:18.578Z,24.97
2023-04-29T23:15:23.654Z,24.96
2023-04-29T23:17:28.671Z,24.96
2023-04-29T23:19:33.968Z,24.98
2023-04-29T23:21:39.092Z,24.97
2023-04-29T23:23:44.123Z,24.96
2023-04-29T23:25:49.229Z,24.95
2023-04-29T23:27:54.280Z,24.94
2023-04-29T23:29:59.540Z,24.93
2023-04-29T23:32:04.587Z,24.93
2023-04-29T23:34:09.614Z,24.92
2023-04-29T23:36:14.652Z,24.9
2023-04-29T23:38:19.827Z,24.9
2023-04-29T23:40:24.945Z,24.89
2023-04-29T23:42:30.000Z,24.89
2023-04-29T23:44:35.036Z,24.88
2023-04-29T23:46:40.091Z,24.88
2023-04-29T23:48:45.557Z,24.88
2023-04-29T23:50:50.587Z,24.88
2023-04-29T23:52:55.672Z,24.88
2023-04-29T23:55:00.758Z,24.89
2023-04-29T23:57:05.932Z,24.88
2023-04-29T23:59:10.927Z,24.9
